sensor_id;sensor_type;location;lat;lon;timestamp;P1;durP1;ratioP1;P2;durP2;ratioP2
11222;SDS011;5668;52.012;8.724;2023-07-20T00:01:10;3.53;;;1.85;;
11222;SDS011;5668;52.012;8.724;2023-07-20T00:03:37;5.07;;;2.05;;
11222;SDS011;5668;52.012;8.724;2023-07-20T00:06:05;5.55;;;1.90;;
11222;SDS011;5668;52.012;8.724;2023-07-20T00:08:32;3.97;;;1.90;;
11222;SDS011;5668;52.012;8.724;2023-07-20T00:11:01;5.63;;;1.98;;
11222;SDS011;5668;52.012;8.724;2023-07-20T00:13:28;2.30;;;1.50;;
11222;SDS011;5668;52.012;8.724;2023-07-20T00:15:55;3.58;;;1.80;;
11222;SDS011;5668;52.012;8.724;2023-07-20T00:18:22;4.60;;;1.73;;
11222;SDS011;5668;52.012;8.724;2023-07-20T00:20:49;3.03;;;1.70;;
11222;SDS011;5668;52.012;8.724;2023-07-20T00:23:17;3.92;;;1.55;;
11222;SDS011;5668;52.012;8.724;2023-07-20T00:25:47;5.00;;;1.73;;
11222;SDS011;5668;52.012;8.724;2023-07-20T00:28:16;2.85;;;1.42;;
11222;SDS011;5668;52.012;8.724;2023-07-20T00:30:43;4.53;;;1.90;;
11222;SDS011;5668;52.012;8.724;2023-07-20T00:33:11;3.25;;;2.15;;
11222;SDS011;5668;52.012;8.724;2023-07-20T00:35:39;2.83;;;1.60;;
11222;SDS011;5668;52.012;8.724;2023-07-20T00:38:06;3.97;;;1.73;;
11222;SDS011;5668;52.012;8.724;2023-07-20T00:40:35;4.03;;;1.80;;
11222;SDS011;5668;52.012;8.724;2023-07-20T00:43:03;4.72;;;1.60;;
11222;SDS011;5668;52.012;8.724;2023-07-20T00:45:32;2.10;;;1.90;;
11222;SDS011;5668;52.012;8.724;2023-07-20T00:48:00;2.63;;;1.60;;
11222;SDS011;5668;52.012;8.724;2023-07-20T00:50:28;3.13;;;1.85;;
11222;SDS011;5668;52.012;8.724;2023-07-20T00:52:56;4.55;;;1.80;;
11222;SDS011;5668;52.012;8.724;2023-07-20T00:55:24;1.73;;;1.30;;
11222;SDS011;5668;52.012;8.724;2023-07-20T00:57:52;5.13;;;1.80;;
11222;SDS011;5668;52.012;8.724;2023-07-20T01:00:20;4.30;;;1.58;;
11222;SDS011;5668;52.012;8.724;2023-07-20T01:02:49;3.20;;;1.50;;
11222;SDS011;5668;52.012;8.724;2023-07-20T01:05:17;3.60;;;1.98;;
11222;SDS011;5668;52.012;8.724;2023-07-20T01:07:46;5.25;;;1.92;;
11222;SDS011;5668;52.012;8.724;2023-07-20T01:10:21;2.60;;;1.67;;
11222;SDS011;5668;52.012;8.724;2023-07-20T01:12:52;4.75;;;1.85;;
11222;SDS011;5668;52.012;8.724;2023-07-20T01:15:21;2.15;;;1.67;;
11222;SDS011;5668;52.012;8.724;2023-07-20T01:17:49;3.80;;;1.95;;
11222;SDS011;5668;52.012;8.724;2023-07-20T01:20:18;3.95;;;1.60;;
11222;SDS011;5668;52.012;8.724;2023-07-20T01:25:59;3.30;;;1.65;;
11222;SDS011;5668;52.012;8.724;2023-07-20T01:28:48;2.90;;;1.80;;
11222;SDS011;5668;52.012;8.724;2023-07-20T01:31:39;4.43;;;2.08;;
11222;SDS011;5668;52.012;8.724;2023-07-20T01:34:10;3.85;;;1.70;;
11222;SDS011;5668;52.012;8.724;2023-07-20T01:36:42;6.35;;;1.83;;
11222;SDS011;5668;52.012;8.724;2023-07-20T01:39:10;2.60;;;1.98;;
11222;SDS011;5668;52.012;8.724;2023-07-20T01:41:39;4.82;;;2.13;;
11222;SDS011;5668;52.012;8.724;2023-07-20T01:44:07;5.38;;;1.90;;
11222;SDS011;5668;52.012;8.724;2023-07-20T01:46:35;3.75;;;2.05;;
11222;SDS011;5668;52.012;8.724;2023-07-20T01:49:04;3.83;;;2.22;;
11222;SDS011;5668;52.012;8.724;2023-07-20T01:51:31;4.75;;;2.33;;
11222;SDS011;5668;52.012;8.724;2023-07-20T01:53:58;4.93;;;2.50;;
11222;SDS011;5668;52.012;8.724;2023-07-20T01:56:25;3.05;;;2.03;;
11222;SDS011;5668;52.012;8.724;2023-07-20T01:58:53;5.75;;;2.50;;
11222;SDS011;5668;52.012;8.724;2023-07-20T02:01:20;6.07;;;2.60;;
11222;SDS011;5668;52.012;8.724;2023-07-20T02:03:47;9.05;;;3.00;;
11222;SDS011;5668;52.012;8.724;2023-07-20T02:06:15;6.57;;;3.55;;
11222;SDS011;5668;52.012;8.724;2023-07-20T02:08:43;5.53;;;3.45;;
11222;SDS011;5668;52.012;8.724;2023-07-20T02:11:10;4.40;;;3.58;;
11222;SDS011;5668;52.012;8.724;2023-07-20T02:13:37;5.85;;;4.10;;
11222;SDS011;5668;52.012;8.724;2023-07-20T02:16:04;6.63;;;4.13;;
11222;SDS011;5668;52.012;8.724;2023-07-20T02:18:31;4.40;;;4.00;;
11222;SDS011;5668;52.012;8.724;2023-07-20T02:21:00;4.47;;;4.18;;
11222;SDS011;5668;52.012;8.724;2023-07-20T02:23:28;5.13;;;4.20;;
11222;SDS011;5668;52.012;8.724;2023-07-20T02:25:55;6.50;;;3.83;;
11222;SDS011;5668;52.012;8.724;2023-07-20T02:28:23;4.75;;;4.05;;
11222;SDS011;5668;52.012;8.724;2023-07-20T02:30:50;4.80;;;4.13;;
11222;SDS011;5668;52.012;8.724;2023-07-20T02:33:18;5.47;;;3.90;;
11222;SDS011;5668;52.012;8.724;2023-07-20T02:35:46;5.35;;;4.47;;
11222;SDS011;5668;52.012;8.724;2023-07-20T02:38:14;4.13;;;3.72;;
11222;SDS011;5668;52.012;8.724;2023-07-20T02:40:42;4.90;;;4.20;;
11222;SDS011;5668;52.012;8.724;2023-07-20T02:43:09;5.88;;;4.30;;
11222;SDS011;5668;52.012;8.724;2023-07-20T02:45:39;4.95;;;4.50;;
11222;SDS011;5668;52.012;8.724;2023-07-20T02:48:07;7.65;;;4.65;;
11222;SDS011;5668;52.012;8.724;2023-07-20T02:50:34;4.82;;;4.35;;
11222;SDS011;5668;52.012;8.724;2023-07-20T02:53:02;4.55;;;4.10;;
11222;SDS011;5668;52.012;8.724;2023-07-20T02:55:29;4.68;;;4.00;;
11222;SDS011;5668;52.012;8.724;2023-07-20T02:57:57;4.93;;;4.47;;
11222;SDS011;5668;52.012;8.724;2023-07-20T03:02:53;5.10;;;4.15;;
11222;SDS011;5668;52.012;8.724;2023-07-20T03:05:21;5.55;;;4.45;;
11222;SDS011;5668;52.012;8.724;2023-07-20T03:07:50;4.60;;;4.20;;
11222;SDS011;5668;52.012;8.724;2023-07-20T03:10:17;4.78;;;4.32;;
11222;SDS011;5668;52.012;8.724;2023-07-20T03:12:45;4.93;;;4.53;;
11222;SDS011;5668;52.012;8.724;2023-07-20T03:15:14;5.88;;;5.28;;
11222;SDS011;5668;52.012;8.724;2023-07-20T03:17:41;5.78;;;5.05;;
11222;SDS011;5668;52.012;8.724;2023-07-20T03:20:09;7.25;;;5.50;;
11222;SDS011;5668;52.012;8.724;2023-07-20T03:22:38;6.25;;;5.47;;
11222;SDS011;5668;52.012;8.724;2023-07-20T03:25:05;8.00;;;6.30;;
11222;SDS011;5668;52.012;8.724;2023-07-20T03:27:33;6.63;;;6.03;;
11222;SDS011;5668;52.012;8.724;2023-07-20T03:30:00;8.55;;;6.60;;
11222;SDS011;5668;52.012;8.724;2023-07-20T03:32:29;7.28;;;6.57;;
11222;SDS011;5668;52.012;8.724;2023-07-20T03:34:56;9.48;;;7.75;;
11222;SDS011;5668;52.012;8.724;2023-07-20T03:37:23;9.13;;;8.15;;
11222;SDS011;5668;52.012;8.724;2023-07-20T03:39:50;11.15;;;8.23;;
11222;SDS011;5668;52.012;8.724;2023-07-20T03:42:17;8.85;;;7.95;;
11222;SDS011;5668;52.012;8.724;2023-07-20T03:44:45;9.52;;;8.20;;
11222;SDS011;5668;52.012;8.724;2023-07-20T03:47:12;8.32;;;7.72;;
11222;SDS011;5668;52.012;8.724;2023-07-20T03:49:41;8.43;;;6.88;;
11222;SDS011;5668;52.012;8.724;2023-07-20T03:52:08;8.02;;;6.43;;
11222;SDS011;5668;52.012;8.724;2023-07-20T03:54:35;7.03;;;5.25;;
11222;SDS011;5668;52.012;8.724;2023-07-20T03:57:03;9.73;;;4.72;;
11222;SDS011;5668;52.012;8.724;2023-07-20T03:59:30;5.47;;;3.92;;
11222;SDS011;5668;52.012;8.724;2023-07-20T04:01:58;5.05;;;3.55;;
11222;SDS011;5668;52.012;8.724;2023-07-20T04:04:26;5.05;;;2.72;;
11222;SDS011;5668;52.012;8.724;2023-07-20T04:06:55;5.18;;;2.80;;
11222;SDS011;5668;52.012;8.724;2023-07-20T04:09:22;3.55;;;2.17;;
11222;SDS011;5668;52.012;8.724;2023-07-20T04:11:49;4.68;;;2.17;;
11222;SDS011;5668;52.012;8.724;2023-07-20T04:14:17;5.30;;;2.47;;
11222;SDS011;5668;52.012;8.724;2023-07-20T04:16:45;3.00;;;2.25;;
11222;SDS011;5668;52.012;8.724;2023-07-20T04:19:13;2.67;;;2.38;;
11222;SDS011;5668;52.012;8.724;2023-07-20T04:21:40;2.90;;;2.30;;
11222;SDS011;5668;52.012;8.724;2023-07-20T04:24:09;3.75;;;2.13;;
11222;SDS011;5668;52.012;8.724;2023-07-20T04:26:36;2.20;;;2.00;;
11222;SDS011;5668;52.012;8.724;2023-07-20T04:29:03;2.30;;;2.10;;
11222;SDS011;5668;52.012;8.724;2023-07-20T04:31:31;4.85;;;2.22;;
11222;SDS011;5668;52.012;8.724;2023-07-20T04:33:59;3.58;;;1.65;;
11222;SDS011;5668;52.012;8.724;2023-07-20T04:36:26;1.90;;;1.80;;
11222;SDS011;5668;52.012;8.724;2023-07-20T04:38:54;2.10;;;1.90;;
11222;SDS011;5668;52.012;8.724;2023-07-20T04:41:22;3.05;;;1.90;;
11222;SDS011;5668;52.012;8.724;2023-07-20T04:43:50;1.83;;;1.73;;
11222;SDS011;5668;52.012;8.724;2023-07-20T04:46:17;2.30;;;2.08;;
11222;SDS011;5668;52.012;8.724;2023-07-20T04:48:46;2.10;;;1.90;;
11222;SDS011;5668;52.012;8.724;2023-07-20T04:51:13;2.92;;;2.05;;
11222;SDS011;5668;52.012;8.724;2023-07-20T04:53:42;3.63;;;1.95;;
11222;SDS011;5668;52.012;8.724;2023-07-20T04:56:09;2.33;;;2.13;;
11222;SDS011;5668;52.012;8.724;2023-07-20T04:58:38;3.13;;;2.30;;
11222;SDS011;5668;52.012;8.724;2023-07-20T05:01:05;2.50;;;2.30;;
11222;SDS011;5668;52.012;8.724;2023-07-20T05:03:32;2.30;;;2.10;;
11222;SDS011;5668;52.012;8.724;2023-07-20T05:05:59;2.63;;;2.38;;
11222;SDS011;5668;52.012;8.724;2023-07-20T05:08:26;2.17;;;1.88;;
11222;SDS011;5668;52.012;8.724;2023-07-20T05:10:54;2.25;;;1.95;;
11222;SDS011;5668;52.012;8.724;2023-07-20T05:13:21;2.38;;;2.17;;
11222;SDS011;5668;52.012;8.724;2023-07-20T05:15:52;1.98;;;1.88;;
11222;SDS011;5668;52.012;8.724;2023-07-20T05:18:19;2.67;;;1.75;;
11222;SDS011;5668;52.012;8.724;2023-07-20T05:20:47;2.55;;;1.98;;
11222;SDS011;5668;52.012;8.724;2023-07-20T05:23:14;2.30;;;2.00;;
11222;SDS011;5668;52.012;8.724;2023-07-20T05:25:43;2.05;;;1.95;;
11222;SDS011;5668;52.012;8.724;2023-07-20T05:28:10;1.98;;;1.80;;
11222;SDS011;5668;52.012;8.724;2023-07-20T05:30:38;2.53;;;1.83;;
11222;SDS011;5668;52.012;8.724;2023-07-20T05:33:07;1.70;;;1.60;;
11222;SDS011;5668;52.012;8.724;2023-07-20T05:35:35;1.98;;;1.80;;
11222;SDS011;5668;52.012;8.724;2023-07-20T05:38:03;1.50;;;1.40;;
11222;SDS011;5668;52.012;8.724;2023-07-20T05:40:31;3.60;;;1.90;;
11222;SDS011;5668;52.012;8.724;2023-07-20T05:42:58;1.63;;;1.52;;
11222;SDS011;5668;52.012;8.724;2023-07-20T05:45:26;2.60;;;1.70;;
11222;SDS011;5668;52.012;8.724;2023-07-20T05:47:53;1.42;;;1.33;;
11222;SDS011;5668;52.012;8.724;2023-07-20T05:50:22;1.73;;;1.60;;
11222;SDS011;5668;52.012;8.724;2023-07-20T05:52:52;2.00;;;1.50;;
11222;SDS011;5668;52.012;8.724;2023-07-20T05:55:19;1.88;;;1.60;;
11222;SDS011;5668;52.012;8.724;2023-07-20T05:57:46;2.28;;;1.80;;
11222;SDS011;5668;52.012;8.724;2023-07-20T06:00:15;2.75;;;1.80;;
11222;SDS011;5668;52.012;8.724;2023-07-20T06:02:44;1.70;;;1.60;;
11222;SDS011;5668;52.012;8.724;2023-07-20T06:05:12;1.52;;;1.40;;
11222;SDS011;5668;52.012;8.724;2023-07-20T06:07:41;1.40;;;1.30;;
11222;SDS011;5668;52.012;8.724;2023-07-20T06:10:09;1.65;;;1.40;;
11222;SDS011;5668;52.012;8.724;2023-07-20T06:12:37;1.63;;;1.40;;
11222;SDS011;5668;52.012;8.724;2023-07-20T06:15:05;1.48;;;1.38;;
11222;SDS011;5668;52.012;8.724;2023-07-20T06:17:50;2.03;;;1.50;;
11222;SDS011;5668;52.012;8.724;2023-07-20T06:20:17;1.70;;;1.60;;
11222;SDS011;5668;52.012;8.724;2023-07-20T06:22:46;1.73;;;1.48;;
11222;SDS011;5668;52.012;8.724;2023-07-20T06:25:14;2.22;;;1.65;;
11222;SDS011;5668;52.012;8.724;2023-07-20T06:27:41;1.63;;;1.52;;
11222;SDS011;5668;52.012;8.724;2023-07-20T06:30:09;1.85;;;1.48;;
11222;SDS011;5668;52.012;8.724;2023-07-20T06:32:37;1.90;;;1.80;;
11222;SDS011;5668;52.012;8.724;2023-07-20T06:35:04;1.60;;;1.50;;
11222;SDS011;5668;52.012;8.724;2023-07-20T06:37:33;1.73;;;1.63;;
11222;SDS011;5668;52.012;8.724;2023-07-20T06:40:02;1.80;;;1.70;;
11222;SDS011;5668;52.012;8.724;2023-07-20T06:42:31;1.67;;;1.58;;
11222;SDS011;5668;52.012;8.724;2023-07-20T06:44:58;2.80;;;1.70;;
11222;SDS011;5668;52.012;8.724;2023-07-20T06:47:25;1.85;;;1.52;;
11222;SDS011;5668;52.012;8.724;2023-07-20T06:49:53;1.60;;;1.50;;
11222;SDS011;5668;52.012;8.724;2023-07-20T06:52:20;1.65;;;1.52;;
11222;SDS011;5668;52.012;8.724;2023-07-20T06:54:47;3.00;;;1.40;;
11222;SDS011;5668;52.012;8.724;2023-07-20T06:57:16;1.35;;;1.23;;
11222;SDS011;5668;52.012;8.724;2023-07-20T06:59:43;1.30;;;1.20;;
11222;SDS011;5668;52.012;8.724;2023-07-20T07:02:10;2.65;;;1.40;;
11222;SDS011;5668;52.012;8.724;2023-07-20T07:04:37;1.30;;;1.20;;
11222;SDS011;5668;52.012;8.724;2023-07-20T07:07:05;1.40;;;1.30;;
11222;SDS011;5668;52.012;8.724;2023-07-20T07:09:32;1.40;;;1.30;;
11222;SDS011;5668;52.012;8.724;2023-07-20T07:11:59;1.65;;;1.30;;
11222;SDS011;5668;52.012;8.724;2023-07-20T07:14:28;1.40;;;1.27;;
11222;SDS011;5668;52.012;8.724;2023-07-20T07:16:55;1.20;;;1.10;;
11222;SDS011;5668;52.012;8.724;2023-07-20T07:19:22;1.95;;;1.30;;
11222;SDS011;5668;52.012;8.724;2023-07-20T07:21:49;1.40;;;1.20;;
11222;SDS011;5668;52.012;8.724;2023-07-20T07:24:16;2.65;;;1.30;;
11222;SDS011;5668;52.012;8.724;2023-07-20T07:26:44;3.38;;;1.38;;
11222;SDS011;5668;52.012;8.724;2023-07-20T07:29:11;1.85;;;1.40;;
11222;SDS011;5668;52.012;8.724;2023-07-20T07:31:39;1.35;;;1.10;;
11222;SDS011;5668;52.012;8.724;2023-07-20T07:34:07;1.30;;;1.02;;
11222;SDS011;5668;52.012;8.724;2023-07-20T07:36:34;1.42;;;1.10;;
11222;SDS011;5668;52.012;8.724;2023-07-20T07:39:01;2.47;;;0.93;;
11222;SDS011;5668;52.012;8.724;2023-07-20T07:41:29;1.33;;;0.80;;
11222;SDS011;5668;52.012;8.724;2023-07-20T07:43:56;1.05;;;0.88;;
11222;SDS011;5668;52.012;8.724;2023-07-20T07:46:23;0.93;;;0.75;;
11222;SDS011;5668;52.012;8.724;2023-07-20T07:48:52;1.83;;;0.85;;
11222;SDS011;5668;52.012;8.724;2023-07-20T07:51:19;2.70;;;0.80;;
11222;SDS011;5668;52.012;8.724;2023-07-20T07:53:46;3.92;;;0.90;;
11222;SDS011;5668;52.012;8.724;2023-07-20T07:56:14;1.20;;;0.70;;
11222;SDS011;5668;52.012;8.724;2023-07-20T07:58:42;1.17;;;0.70;;
11222;SDS011;5668;52.012;8.724;2023-07-20T08:01:09;1.92;;;0.80;;
11222;SDS011;5668;52.012;8.724;2023-07-20T08:03:36;1.15;;;0.70;;
11222;SDS011;5668;52.012;8.724;2023-07-20T08:06:05;2.63;;;0.70;;
11222;SDS011;5668;52.012;8.724;2023-07-20T08:08:32;1.23;;;0.85;;
11222;SDS011;5668;52.012;8.724;2023-07-20T08:11:00;1.17;;;0.95;;
11222;SDS011;5668;52.012;8.724;2023-07-20T08:13:27;1.58;;;0.90;;
11222;SDS011;5668;52.012;8.724;2023-07-20T08:15:54;1.05;;;0.75;;
11222;SDS011;5668;52.012;8.724;2023-07-20T08:18:21;0.90;;;0.70;;
11222;SDS011;5668;52.012;8.724;2023-07-20T08:20:49;0.70;;;0.70;;
11222;SDS011;5668;52.012;8.724;2023-07-20T08:23:17;0.90;;;0.80;;
11222;SDS011;5668;52.012;8.724;2023-07-20T08:25:45;1.88;;;0.85;;
11222;SDS011;5668;52.012;8.724;2023-07-20T08:28:13;0.70;;;0.70;;
11222;SDS011;5668;52.012;8.724;2023-07-20T08:30:41;0.88;;;0.60;;
11222;SDS011;5668;52.012;8.724;2023-07-20T08:33:09;1.30;;;0.77;;
11222;SDS011;5668;52.012;8.724;2023-07-20T08:35:39;0.60;;;0.60;;
11222;SDS011;5668;52.012;8.724;2023-07-20T08:38:06;1.60;;;0.85;;
11222;SDS011;5668;52.012;8.724;2023-07-20T08:40:38;0.50;;;0.50;;
11222;SDS011;5668;52.012;8.724;2023-07-20T08:43:06;1.13;;;0.60;;
11222;SDS011;5668;52.012;8.724;2023-07-20T08:45:34;0.88;;;0.68;;
11222;SDS011;5668;52.012;8.724;2023-07-20T08:48:05;1.33;;;0.65;;
11222;SDS011;5668;52.012;8.724;2023-07-20T08:50:33;0.82;;;0.50;;
11222;SDS011;5668;52.012;8.724;2023-07-20T08:53:01;1.58;;;0.88;;
11222;SDS011;5668;52.012;8.724;2023-07-20T08:55:30;1.10;;;0.60;;
11222;SDS011;5668;52.012;8.724;2023-07-20T08:57:59;1.23;;;0.85;;
11222;SDS011;5668;52.012;8.724;2023-07-20T09:00:29;2.30;;;1.20;;
11222;SDS011;5668;52.012;8.724;2023-07-20T09:02:57;1.30;;;1.20;;
11222;SDS011;5668;52.012;8.724;2023-07-20T09:05:25;1.88;;;1.23;;
11222;SDS011;5668;52.012;8.724;2023-07-20T09:07:53;1.98;;;1.50;;
11222;SDS011;5668;52.012;8.724;2023-07-20T09:10:20;2.08;;;1.50;;
11222;SDS011;5668;52.012;8.724;2023-07-20T09:12:48;2.25;;;1.45;;
11222;SDS011;5668;52.012;8.724;2023-07-20T09:15:17;1.90;;;1.25;;
11222;SDS011;5668;52.012;8.724;2023-07-20T09:17:46;1.23;;;1.00;;
11222;SDS011;5668;52.012;8.724;2023-07-20T09:20:14;1.00;;;0.90;;
11222;SDS011;5668;52.012;8.724;2023-07-20T09:22:43;1.52;;;1.00;;
11222;SDS011;5668;52.012;8.724;2023-07-20T09:25:11;1.23;;;1.10;;
11222;SDS011;5668;52.012;8.724;2023-07-20T09:27:40;2.72;;;1.45;;
11222;SDS011;5668;52.012;8.724;2023-07-20T09:30:09;1.85;;;1.30;;
11222;SDS011;5668;52.012;8.724;2023-07-20T09:32:40;2.90;;;1.58;;
11222;SDS011;5668;52.012;8.724;2023-07-20T09:35:12;1.92;;;1.50;;
11222;SDS011;5668;52.012;8.724;2023-07-20T09:37:42;3.35;;;1.50;;
11222;SDS011;5668;52.012;8.724;2023-07-20T09:40:16;1.92;;;1.00;;
11222;SDS011;5668;52.012;8.724;2023-07-20T09:42:44;1.48;;;0.93;;
11222;SDS011;5668;52.012;8.724;2023-07-20T09:45:11;1.00;;;0.80;;
11222;SDS011;5668;52.012;8.724;2023-07-20T09:47:40;2.10;;;1.00;;
11222;SDS011;5668;52.012;8.724;2023-07-20T09:50:11;2.38;;;1.13;;
11222;SDS011;5668;52.012;8.724;2023-07-20T09:52:39;2.13;;;1.30;;
11222;SDS011;5668;52.012;8.724;2023-07-20T09:55:09;1.45;;;1.08;;
11222;SDS011;5668;52.012;8.724;2023-07-20T09:57:37;2.47;;;1.45;;
11222;SDS011;5668;52.012;8.724;2023-07-20T10:00:05;2.15;;;1.40;;
11222;SDS011;5668;52.012;8.724;2023-07-20T10:02:42;1.70;;;1.20;;
11222;SDS011;5668;52.012;8.724;2023-07-20T10:05:11;1.95;;;0.93;;
11222;SDS011;5668;52.012;8.724;2023-07-20T10:07:42;1.52;;;0.80;;
11222;SDS011;5668;52.012;8.724;2023-07-20T10:10:13;0.75;;;0.57;;
11222;SDS011;5668;52.012;8.724;2023-07-20T10:12:42;1.35;;;0.85;;
11222;SDS011;5668;52.012;8.724;2023-07-20T10:15:11;1.40;;;0.55;;
11222;SDS011;5668;52.012;8.724;2023-07-20T10:17:45;0.60;;;0.50;;
11222;SDS011;5668;52.012;8.724;2023-07-20T10:20:23;1.13;;;0.70;;
11222;SDS011;5668;52.012;8.724;2023-07-20T10:22:53;0.80;;;0.47;;
11222;SDS011;5668;52.012;8.724;2023-07-20T10:25:23;1.48;;;0.60;;
11222;SDS011;5668;52.012;8.724;2023-07-20T10:27:50;0.60;;;0.60;;
11222;SDS011;5668;52.012;8.724;2023-07-20T10:30:18;1.73;;;0.70;;
11222;SDS011;5668;52.012;8.724;2023-07-20T10:32:47;0.90;;;0.50;;
11222;SDS011;5668;52.012;8.724;2023-07-20T10:35:16;0.57;;;0.57;;
11222;SDS011;5668;52.012;8.724;2023-07-20T10:37:47;1.05;;;0.40;;
11222;SDS011;5668;52.012;8.724;2023-07-20T10:40:32;1.48;;;0.50;;
11222;SDS011;5668;52.012;8.724;2023-07-20T10:43:01;1.23;;;0.63;;
11222;SDS011;5668;52.012;8.724;2023-07-20T10:45:33;0.60;;;0.60;;
11222;SDS011;5668;52.012;8.724;2023-07-20T10:48:06;0.50;;;0.50;;
11222;SDS011;5668;52.012;8.724;2023-07-20T10:50:40;0.80;;;0.80;;
11222;SDS011;5668;52.012;8.724;2023-07-20T10:53:12;0.85;;;0.52;;
11222;SDS011;5668;52.012;8.724;2023-07-20T10:55:40;2.88;;;0.55;;
11222;SDS011;5668;52.012;8.724;2023-07-20T10:58:09;0.50;;;0.50;;
11222;SDS011;5668;52.012;8.724;2023-07-20T11:00:37;0.50;;;0.50;;
11222;SDS011;5668;52.012;8.724;2023-07-20T11:03:30;1.30;;;0.80;;
11222;SDS011;5668;52.012;8.724;2023-07-20T11:05:58;0.70;;;0.45;;
11222;SDS011;5668;52.012;8.724;2023-07-20T11:08:38;0.45;;;0.40;;
11222;SDS011;5668;52.012;8.724;2023-07-20T11:11:23;1.23;;;0.52;;
11222;SDS011;5668;52.012;8.724;2023-07-20T11:13:54;0.43;;;0.43;;
11222;SDS011;5668;52.012;8.724;2023-07-20T11:16:36;0.50;;;0.40;;
11222;SDS011;5668;52.012;8.724;2023-07-20T11:19:06;1.50;;;0.47;;
11222;SDS011;5668;52.012;8.724;2023-07-20T11:21:40;0.85;;;0.60;;
11222;SDS011;5668;52.012;8.724;2023-07-20T11:24:09;1.17;;;0.60;;
11222;SDS011;5668;52.012;8.724;2023-07-20T11:26:41;0.75;;;0.50;;
11222;SDS011;5668;52.012;8.724;2023-07-20T11:29:10;0.40;;;0.40;;
11222;SDS011;5668;52.012;8.724;2023-07-20T11:31:38;2.92;;;0.60;;
11222;SDS011;5668;52.012;8.724;2023-07-20T11:34:09;1.77;;;0.90;;
11222;SDS011;5668;52.012;8.724;2023-07-20T11:36:39;1.10;;;0.70;;
11222;SDS011;5668;52.012;8.724;2023-07-20T11:39:07;0.55;;;0.50;;
11222;SDS011;5668;52.012;8.724;2023-07-20T11:41:35;0.50;;;0.50;;
11222;SDS011;5668;52.012;8.724;2023-07-20T11:44:05;0.75;;;0.63;;
11222;SDS011;5668;52.012;8.724;2023-07-20T11:46:33;0.88;;;0.70;;
11222;SDS011;5668;52.012;8.724;2023-07-20T11:49:01;0.70;;;0.70;;
11222;SDS011;5668;52.012;8.724;2023-07-20T11:51:30;2.08;;;0.65;;
11222;SDS011;5668;52.012;8.724;2023-07-20T11:53:58;1.60;;;0.90;;
11222;SDS011;5668;52.012;8.724;2023-07-20T11:56:25;1.20;;;0.70;;
11222;SDS011;5668;52.012;8.724;2023-07-20T11:58:55;1.00;;;0.68;;
11222;SDS011;5668;52.012;8.724;2023-07-20T12:01:25;1.13;;;0.88;;
11222;SDS011;5668;52.012;8.724;2023-07-20T12:03:54;2.38;;;0.70;;
11222;SDS011;5668;52.012;8.724;2023-07-20T12:06:22;1.00;;;0.80;;
11222;SDS011;5668;52.012;8.724;2023-07-20T12:08:53;0.63;;;0.63;;
11222;SDS011;5668;52.012;8.724;2023-07-20T12:11:32;0.80;;;0.75;;
11222;SDS011;5668;52.012;8.724;2023-07-20T12:14:00;0.85;;;0.85;;
11222;SDS011;5668;52.012;8.724;2023-07-20T12:16:28;1.90;;;0.93;;
11222;SDS011;5668;52.012;8.724;2023-07-20T12:18:59;1.50;;;1.00;;
11222;SDS011;5668;52.012;8.724;2023-07-20T12:21:27;1.40;;;0.90;;
11222;SDS011;5668;52.012;8.724;2023-07-20T12:23:57;1.33;;;1.00;;
11222;SDS011;5668;52.012;8.724;2023-07-20T12:26:24;1.65;;;0.98;;
11222;SDS011;5668;52.012;8.724;2023-07-20T12:28:52;1.88;;;1.02;;
11222;SDS011;5668;52.012;8.724;2023-07-20T12:31:20;1.00;;;0.90;;
11222;SDS011;5668;52.012;8.724;2023-07-20T12:33:49;1.25;;;1.10;;
11222;SDS011;5668;52.012;8.724;2023-07-20T12:36:16;1.10;;;1.00;;
11222;SDS011;5668;52.012;8.724;2023-07-20T12:38:44;1.25;;;1.00;;
11222;SDS011;5668;52.012;8.724;2023-07-20T12:41:13;0.90;;;0.90;;
11222;SDS011;5668;52.012;8.724;2023-07-20T12:43:40;1.30;;;1.20;;
11222;SDS011;5668;52.012;8.724;2023-07-20T12:46:08;1.20;;;1.10;;
11222;SDS011;5668;52.012;8.724;2023-07-20T12:48:36;1.40;;;1.08;;
11222;SDS011;5668;52.012;8.724;2023-07-20T12:51:05;1.38;;;1.00;;
11222;SDS011;5668;52.012;8.724;2023-07-20T12:53:33;1.33;;;1.00;;
11222;SDS011;5668;52.012;8.724;2023-07-20T12:56:00;1.20;;;1.10;;
11222;SDS011;5668;52.012;8.724;2023-07-20T12:58:30;2.13;;;1.20;;
11222;SDS011;5668;52.012;8.724;2023-07-20T13:00:57;1.13;;;1.02;;
11222;SDS011;5668;52.012;8.724;2023-07-20T13:03:24;1.20;;;1.08;;
11222;SDS011;5668;52.012;8.724;2023-07-20T13:05:51;1.20;;;1.10;;
11222;SDS011;5668;52.012;8.724;2023-07-20T13:08:18;1.35;;;1.23;;
11222;SDS011;5668;52.012;8.724;2023-07-20T13:10:50;1.60;;;1.00;;
11222;SDS011;5668;52.012;8.724;2023-07-20T13:13:17;2.10;;;1.10;;
11222;SDS011;5668;52.012;8.724;2023-07-20T13:15:46;1.33;;;1.23;;
11222;SDS011;5668;52.012;8.724;2023-07-20T13:18:14;1.00;;;1.00;;
11222;SDS011;5668;52.012;8.724;2023-07-20T13:20:41;2.85;;;1.10;;
11222;SDS011;5668;52.012;8.724;2023-07-20T13:23:08;2.65;;;1.20;;
11222;SDS011;5668;52.012;8.724;2023-07-20T13:25:35;2.03;;;1.20;;
11222;SDS011;5668;52.012;8.724;2023-07-20T13:28:03;1.30;;;0.82;;
11222;SDS011;5668;52.012;8.724;2023-07-20T13:30:31;1.30;;;0.85;;
11222;SDS011;5668;52.012;8.724;2023-07-20T13:32:59;1.25;;;0.75;;
11222;SDS011;5668;52.012;8.724;2023-07-20T13:35:27;1.20;;;0.88;;
11222;SDS011;5668;52.012;8.724;2023-07-20T13:37:54;1.05;;;0.75;;
11222;SDS011;5668;52.012;8.724;2023-07-20T13:40:22;1.00;;;0.90;;
11222;SDS011;5668;52.012;8.724;2023-07-20T13:42:50;1.75;;;1.10;;
11222;SDS011;5668;52.012;8.724;2023-07-20T13:45:17;1.95;;;0.98;;
11222;SDS011;5668;52.012;8.724;2023-07-20T13:47:44;0.90;;;0.80;;
11222;SDS011;5668;52.012;8.724;2023-07-20T13:50:13;1.23;;;0.80;;
11222;SDS011;5668;52.012;8.724;2023-07-20T13:52:41;1.50;;;0.70;;
11222;SDS011;5668;52.012;8.724;2023-07-20T13:55:08;2.47;;;0.90;;
11222;SDS011;5668;52.012;8.724;2023-07-20T13:57:36;0.82;;;0.68;;
11222;SDS011;5668;52.012;8.724;2023-07-20T14:00:03;0.63;;;0.63;;
11222;SDS011;5668;52.012;8.724;2023-07-20T14:02:33;1.58;;;0.70;;
11222;SDS011;5668;52.012;8.724;2023-07-20T14:05:01;1.30;;;0.70;;
11222;SDS011;5668;52.012;8.724;2023-07-20T14:07:30;0.80;;;0.80;;
11222;SDS011;5668;52.012;8.724;2023-07-20T14:09:57;0.70;;;0.70;;
11222;SDS011;5668;52.012;8.724;2023-07-20T14:12:25;1.05;;;0.80;;
11222;SDS011;5668;52.012;8.724;2023-07-20T14:14:53;0.60;;;0.60;;
11222;SDS011;5668;52.012;8.724;2023-07-20T14:17:20;0.75;;;0.75;;
11222;SDS011;5668;52.012;8.724;2023-07-20T14:19:47;0.82;;;0.65;;
11222;SDS011;5668;52.012;8.724;2023-07-20T14:22:16;1.63;;;0.60;;
11222;SDS011;5668;52.012;8.724;2023-07-20T14:24:44;0.73;;;0.60;;
11222;SDS011;5668;52.012;8.724;2023-07-20T14:27:12;2.03;;;0.47;;
11222;SDS011;5668;52.012;8.724;2023-07-20T14:29:39;2.15;;;0.55;;
11222;SDS011;5668;52.012;8.724;2023-07-20T14:32:06;0.50;;;0.40;;
11222;SDS011;5668;52.012;8.724;2023-07-20T14:34:33;0.63;;;0.60;;
11222;SDS011;5668;52.012;8.724;2023-07-20T14:37:01;0.50;;;0.50;;
11222;SDS011;5668;52.012;8.724;2023-07-20T14:39:29;0.77;;;0.43;;
11222;SDS011;5668;52.012;8.724;2023-07-20T14:41:57;1.90;;;0.80;;
11222;SDS011;5668;52.012;8.724;2023-07-20T14:44:25;0.90;;;0.80;;
11222;SDS011;5668;52.012;8.724;2023-07-20T14:46:52;0.80;;;0.70;;
11222;SDS011;5668;52.012;8.724;2023-07-20T14:49:20;2.08;;;0.60;;
11222;SDS011;5668;52.012;8.724;2023-07-20T14:51:47;1.20;;;0.60;;
11222;SDS011;5668;52.012;8.724;2023-07-20T14:54:14;1.63;;;0.50;;
11222;SDS011;5668;52.012;8.724;2023-07-20T14:56:48;1.02;;;0.70;;
11222;SDS011;5668;52.012;8.724;2023-07-20T14:59:18;1.67;;;0.52;;
11222;SDS011;5668;52.012;8.724;2023-07-20T15:01:46;0.60;;;0.60;;
11222;SDS011;5668;52.012;8.724;2023-07-20T15:04:13;1.63;;;0.50;;
11222;SDS011;5668;52.012;8.724;2023-07-20T15:06:41;1.95;;;0.70;;
11222;SDS011;5668;52.012;8.724;2023-07-20T15:09:08;1.55;;;0.70;;
11222;SDS011;5668;52.012;8.724;2023-07-20T15:11:36;3.60;;;0.70;;
11222;SDS011;5668;52.012;8.724;2023-07-20T15:14:03;1.00;;;0.60;;